Terminal Aerodrome Forecast
Issued by NWS

Home | Current Version | Previous Version | Text Only | Print | Product List | Glossary On
Versions: 1 2 3 4 5 6 7 8 9 10 11 12 13 14 15
383
FTUS43 KEAX 212320
TAFMKC
TAF
KMKC 212320Z 2200/2224 22004KT P6SM SKC
      TEMPO 2200/2202 29012G22KT
     FM221000 21006KT P6SM SCT050
     FM221800 25011KT P6SM VCTS OVC040CB=

USA.gov is the U.S. government's official web portal to all federal, state and local government web resources and services.